sensor_id;sensor_type;location;lat;lon;timestamp;pressure;altitude;pressure_sealevel;temperature;humidity
13486;BME280;6815;59.336;17.998;2023-04-22T00:00:03;52029.28;;;-145.37;60.07
13486;BME280;6815;59.336;17.998;2023-04-22T00:02:29;52027.28;;;-145.37;60.66
13486;BME280;6815;59.336;17.998;2023-04-22T00:04:55;52035.25;;;-145.37;60.64
13486;BME280;6815;59.336;17.998;2023-04-22T00:07:22;52031.25;;;-145.37;60.85
13486;BME280;6815;59.336;17.998;2023-04-22T00:09:48;51995.34;;;-145.37;60.60
13486;BME280;6815;59.336;17.998;2023-04-22T00:12:13;51989.34;;;-145.37;60.20
13486;BME280;6815;59.336;17.998;2023-04-22T00:14:40;52051.22;;;-145.37;60.25
13486;BME280;6815;59.336;17.998;2023-04-22T00:17:06;52027.28;;;-145.37;61.32
13486;BME280;6815;59.336;17.998;2023-04-22T00:19:32;52041.25;;;-145.37;60.97
13486;BME280;6815;59.336;17.998;2023-04-22T00:21:57;51993.34;;;-145.37;60.24
13486;BME280;6815;59.336;17.998;2023-04-22T00:24:23;52035.25;;;-145.37;58.72
13486;BME280;6815;59.336;17.998;2023-04-22T00:26:49;52021.28;;;-145.37;60.12
13486;BME280;6815;59.336;17.998;2023-04-22T00:29:16;52019.28;;;-145.37;61.11
13486;BME280;6815;59.336;17.998;2023-04-22T00:31:41;52043.25;;;-145.37;61.72
13486;BME280;6815;59.336;17.998;2023-04-22T00:34:07;52017.28;;;-145.37;61.45
13486;BME280;6815;59.336;17.998;2023-04-22T00:36:32;52047.25;;;-145.37;60.82
13486;BME280;6815;59.336;17.998;2023-04-22T00:38:58;52041.25;;;-145.37;60.74
13486;BME280;6815;59.336;17.998;2023-04-22T00:41:23;52037.25;;;-145.37;61.81
13486;BME280;6815;59.336;17.998;2023-04-22T00:43:51;52019.28;;;-145.37;60.72
13486;BME280;6815;59.336;17.998;2023-04-22T00:46:19;52047.25;;;-145.37;61.00
13486;BME280;6815;59.336;17.998;2023-04-22T00:48:45;52045.25;;;-145.37;60.18
13486;BME280;6815;59.336;17.998;2023-04-22T00:51:10;52039.25;;;-145.37;60.43
13486;BME280;6815;59.336;17.998;2023-04-22T00:53:36;52045.25;;;-145.37;60.14
13486;BME280;6815;59.336;17.998;2023-04-22T00:56:02;52043.25;;;-145.37;60.69
13486;BME280;6815;59.336;17.998;2023-04-22T00:58:28;52059.22;;;-145.37;61.73
13486;BME280;6815;59.336;17.998;2023-04-22T01:00:54;52031.25;;;-145.37;60.80
13486;BME280;6815;59.336;17.998;2023-04-22T01:03:20;52047.25;;;-145.37;61.26
13486;BME280;6815;59.336;17.998;2023-04-22T01:05:49;52015.28;;;-145.37;60.52
13486;BME280;6815;59.336;17.998;2023-04-22T01:08:15;52051.22;;;-145.37;61.35
13486;BME280;6815;59.336;17.998;2023-04-22T01:10:42;52057.22;;;-145.37;61.40
13486;BME280;6815;59.336;17.998;2023-04-22T01:13:08;52033.25;;;-145.37;61.43
13486;BME280;6815;59.336;17.998;2023-04-22T01:15:35;52035.25;;;-145.37;62.08
13486;BME280;6815;59.336;17.998;2023-04-22T01:18:01;52041.25;;;-145.37;61.67
13486;BME280;6815;59.336;17.998;2023-04-22T01:20:29;52049.22;;;-145.37;63.44
13486;BME280;6815;59.336;17.998;2023-04-22T01:22:55;52005.31;;;-145.37;63.57
13486;BME280;6815;59.336;17.998;2023-04-22T01:25:26;52037.25;;;-145.37;63.16
13486;BME280;6815;59.336;17.998;2023-04-22T01:27:52;52021.28;;;-145.37;63.60
13486;BME280;6815;59.336;17.998;2023-04-22T01:30:20;52035.25;;;-145.37;62.90
13486;BME280;6815;59.336;17.998;2023-04-22T01:32:46;52037.25;;;-145.37;62.08
13486;BME280;6815;59.336;17.998;2023-04-22T01:35:12;51989.34;;;-145.37;63.52
13486;BME280;6815;59.336;17.998;2023-04-22T01:37:39;52007.31;;;-145.37;63.80
13486;BME280;6815;59.336;17.998;2023-04-22T01:40:07;52027.28;;;-145.37;63.88
13486;BME280;6815;59.336;17.998;2023-04-22T01:42:33;51997.34;;;-145.37;63.31
13486;BME280;6815;59.336;17.998;2023-04-22T01:44:59;52001.31;;;-145.37;60.75
13486;BME280;6815;59.336;17.998;2023-04-22T01:47:25;52005.31;;;-145.37;61.51
13486;BME280;6815;59.336;17.998;2023-04-22T01:49:51;52001.31;;;-145.37;61.12
13486;BME280;6815;59.336;17.998;2023-04-22T01:52:18;52053.22;;;-145.37;61.43
13486;BME280;6815;59.336;17.998;2023-04-22T01:54:45;52085.16;;;-145.37;61.20
13486;BME280;6815;59.336;17.998;2023-04-22T01:57:12;51993.34;;;-145.37;62.25
13486;BME280;6815;59.336;17.998;2023-04-22T01:59:38;52041.25;;;-145.37;64.20
13486;BME280;6815;59.336;17.998;2023-04-22T02:02:06;52037.25;;;-145.37;63.77
13486;BME280;6815;59.336;17.998;2023-04-22T02:04:31;51997.34;;;-145.37;63.72
13486;BME280;6815;59.336;17.998;2023-04-22T02:06:57;52023.28;;;-145.37;62.92
13486;BME280;6815;59.336;17.998;2023-04-22T02:09:23;52011.31;;;-145.37;63.52
13486;BME280;6815;59.336;17.998;2023-04-22T02:11:49;51997.34;;;-145.37;63.72
13486;BME280;6815;59.336;17.998;2023-04-22T02:14:14;52017.28;;;-145.37;62.87
13486;BME280;6815;59.336;17.998;2023-04-22T02:16:40;52011.31;;;-145.37;64.54
13486;BME280;6815;59.336;17.998;2023-04-22T02:19:06;52013.31;;;-145.37;65.17
13486;BME280;6815;59.336;17.998;2023-04-22T02:21:32;52019.28;;;-145.37;65.68
13486;BME280;6815;59.336;17.998;2023-04-22T02:23:58;52025.28;;;-145.37;66.20
13486;BME280;6815;59.336;17.998;2023-04-22T02:26:23;52043.25;;;-145.37;64.18
13486;BME280;6815;59.336;17.998;2023-04-22T02:28:50;52019.28;;;-145.37;64.07
13486;BME280;6815;59.336;17.998;2023-04-22T02:31:16;51991.34;;;-145.37;63.76
13486;BME280;6815;59.336;17.998;2023-04-22T02:33:41;52023.28;;;-145.37;64.05
13486;BME280;6815;59.336;17.998;2023-04-22T02:36:07;52061.22;;;-145.37;63.38
13486;BME280;6815;59.336;17.998;2023-04-22T02:38:32;52031.25;;;-145.37;62.38
13486;BME280;6815;59.336;17.998;2023-04-22T02:40:58;52023.28;;;-145.37;63.80
13486;BME280;6815;59.336;17.998;2023-04-22T02:43:24;52013.31;;;-145.37;63.28
13486;BME280;6815;59.336;17.998;2023-04-22T02:45:49;52017.28;;;-145.37;63.17
13486;BME280;6815;59.336;17.998;2023-04-22T02:48:15;52017.28;;;-145.37;62.81
13486;BME280;6815;59.336;17.998;2023-04-22T02:50:40;52009.31;;;-145.37;62.96
13486;BME280;6815;59.336;17.998;2023-04-22T02:53:07;52049.22;;;-145.37;63.04
13486;BME280;6815;59.336;17.998;2023-04-22T02:55:32;52003.31;;;-145.37;62.71
13486;BME280;6815;59.336;17.998;2023-04-22T02:57:59;52007.31;;;-145.37;61.23
13486;BME280;6815;59.336;17.998;2023-04-22T03:00:24;52039.25;;;-145.37;61.42
13486;BME280;6815;59.336;17.998;2023-04-22T03:02:50;52043.25;;;-145.37;59.70
13486;BME280;6815;59.336;17.998;2023-04-22T03:05:15;52023.28;;;-145.37;58.07
13486;BME280;6815;59.336;17.998;2023-04-22T03:07:41;52021.28;;;-145.37;58.91
13486;BME280;6815;59.336;17.998;2023-04-22T03:10:07;52059.22;;;-145.37;56.95
13486;BME280;6815;59.336;17.998;2023-04-22T03:12:33;52079.19;;;-145.37;54.82
13486;BME280;6815;59.336;17.998;2023-04-22T03:14:58;52015.28;;;-145.37;55.32
13486;BME280;6815;59.336;17.998;2023-04-22T03:17:24;52017.28;;;-145.37;55.76
13486;BME280;6815;59.336;17.998;2023-04-22T03:19:50;52017.28;;;-145.37;53.35
13486;BME280;6815;59.336;17.998;2023-04-22T03:22:15;52013.31;;;-145.37;53.00
13486;BME280;6815;59.336;17.998;2023-04-22T03:24:41;52019.28;;;-145.37;52.11
13486;BME280;6815;59.336;17.998;2023-04-22T03:27:06;52003.31;;;-145.37;51.00
13486;BME280;6815;59.336;17.998;2023-04-22T03:29:33;52041.25;;;-145.37;49.97
13486;BME280;6815;59.336;17.998;2023-04-22T03:32:00;52023.28;;;-145.37;50.36
13486;BME280;6815;59.336;17.998;2023-04-22T03:34:26;52033.25;;;-145.37;49.83
13486;BME280;6815;59.336;17.998;2023-04-22T03:36:52;52027.28;;;-145.37;49.60
13486;BME280;6815;59.336;17.998;2023-04-22T03:39:17;52007.31;;;-145.37;48.82
13486;BME280;6815;59.336;17.998;2023-04-22T03:41:44;52065.19;;;-145.37;48.85
13486;BME280;6815;59.336;17.998;2023-04-22T03:44:09;52069.19;;;-145.37;49.46
13486;BME280;6815;59.336;17.998;2023-04-22T03:46:35;52037.25;;;-145.37;49.94
13486;BME280;6815;59.336;17.998;2023-04-22T03:49:00;52043.25;;;-145.37;50.47
13486;BME280;6815;59.336;17.998;2023-04-22T03:51:26;52005.31;;;-145.37;51.37
13486;BME280;6815;59.336;17.998;2023-04-22T03:53:52;52055.22;;;-145.37;52.01
13486;BME280;6815;59.336;17.998;2023-04-22T03:56:17;52021.28;;;-145.37;50.95
13486;BME280;6815;59.336;17.998;2023-04-22T03:58:43;52059.22;;;-145.37;49.96
13486;BME280;6815;59.336;17.998;2023-04-22T04:01:08;52063.22;;;-145.37;49.68
13486;BME280;6815;59.336;17.998;2023-04-22T04:03:33;52025.28;;;-145.37;49.07
13486;BME280;6815;59.336;17.998;2023-04-22T04:05:59;52021.28;;;-145.37;48.95
13486;BME280;6815;59.336;17.998;2023-04-22T04:08:25;52073.19;;;-145.37;48.69
13486;BME280;6815;59.336;17.998;2023-04-22T04:10:50;52033.25;;;-145.37;48.27
13486;BME280;6815;59.336;17.998;2023-04-22T04:13:16;52037.25;;;-145.37;47.86
13486;BME280;6815;59.336;17.998;2023-04-22T04:15:41;52033.25;;;-145.37;48.21
13486;BME280;6815;59.336;17.998;2023-04-22T04:18:07;52033.25;;;-145.37;48.43
13486;BME280;6815;59.336;17.998;2023-04-22T04:20:33;52023.28;;;-145.37;48.47
13486;BME280;6815;59.336;17.998;2023-04-22T04:22:59;52015.28;;;-145.37;48.21
13486;BME280;6815;59.336;17.998;2023-04-22T04:25:24;52009.31;;;-145.37;48.44
13486;BME280;6815;59.336;17.998;2023-04-22T04:27:51;52035.25;;;-145.37;48.37
13486;BME280;6815;59.336;17.998;2023-04-22T04:30:16;52051.22;;;-145.37;48.53
13486;BME280;6815;59.336;17.998;2023-04-22T04:32:42;52019.28;;;-145.37;48.24
13486;BME280;6815;59.336;17.998;2023-04-22T04:35:10;52017.28;;;-145.37;48.33
13486;BME280;6815;59.336;17.998;2023-04-22T04:37:38;52057.22;;;-145.37;48.40
13486;BME280;6815;59.336;17.998;2023-04-22T04:40:05;52093.16;;;-145.37;48.24
13486;BME280;6815;59.336;17.998;2023-04-22T04:42:32;52013.31;;;-145.37;48.90
13486;BME280;6815;59.336;17.998;2023-04-22T04:44:57;52029.28;;;-145.37;49.30
13486;BME280;6815;59.336;17.998;2023-04-22T04:47:23;52025.28;;;-145.37;48.52
13486;BME280;6815;59.336;17.998;2023-04-22T04:49:49;52031.25;;;-145.37;48.00
13486;BME280;6815;59.336;17.998;2023-04-22T04:52:17;52003.31;;;-145.37;48.59
13486;BME280;6815;59.336;17.998;2023-04-22T04:54:43;52013.31;;;-145.37;48.87
13486;BME280;6815;59.336;17.998;2023-04-22T04:57:08;52025.28;;;-145.37;49.01
13486;BME280;6815;59.336;17.998;2023-04-22T04:59:34;52061.22;;;-145.37;48.99
13486;BME280;6815;59.336;17.998;2023-04-22T05:02:00;52017.28;;;-145.37;49.19
13486;BME280;6815;59.336;17.998;2023-04-22T05:04:25;52019.28;;;-145.37;49.95
13486;BME280;6815;59.336;17.998;2023-04-22T05:06:51;52043.25;;;-145.37;49.57
13486;BME280;6815;59.336;17.998;2023-04-22T05:09:16;52073.19;;;-145.37;49.75
13486;BME280;6815;59.336;17.998;2023-04-22T05:11:42;52017.28;;;-145.37;50.20
13486;BME280;6815;59.336;17.998;2023-04-22T05:14:07;52039.25;;;-145.37;50.43
13486;BME280;6815;59.336;17.998;2023-04-22T05:16:33;52047.25;;;-145.37;49.99
13486;BME280;6815;59.336;17.998;2023-04-22T05:18:58;52041.25;;;-145.37;49.98
13486;BME280;6815;59.336;17.998;2023-04-22T05:21:24;52023.28;;;-145.37;50.31
13486;BME280;6815;59.336;17.998;2023-04-22T05:23:49;52043.25;;;-145.37;50.53
13486;BME280;6815;59.336;17.998;2023-04-22T05:26:15;52027.28;;;-145.37;50.10
13486;BME280;6815;59.336;17.998;2023-04-22T05:28:40;52027.28;;;-145.37;49.53
13486;BME280;6815;59.336;17.998;2023-04-22T05:31:06;52013.31;;;-145.37;49.54
13486;BME280;6815;59.336;17.998;2023-04-22T05:33:32;52021.28;;;-145.37;48.52
13486;BME280;6815;59.336;17.998;2023-04-22T05:35:57;52091.16;;;-145.37;47.84
13486;BME280;6815;59.336;17.998;2023-04-22T05:38:23;52063.22;;;-145.37;46.85
13486;BME280;6815;59.336;17.998;2023-04-22T05:40:49;52055.22;;;-145.37;46.28
13486;BME280;6815;59.336;17.998;2023-04-22T05:43:15;52011.31;;;-145.37;46.36
13486;BME280;6815;59.336;17.998;2023-04-22T05:45:44;52017.28;;;-145.37;44.80
13486;BME280;6815;59.336;17.998;2023-04-22T05:48:10;52007.31;;;-145.37;44.46
13486;BME280;6815;59.336;17.998;2023-04-22T05:50:35;52009.31;;;-145.37;45.14
13486;BME280;6815;59.336;17.998;2023-04-22T05:53:01;52033.25;;;-145.37;45.65
13486;BME280;6815;59.336;17.998;2023-04-22T05:55:26;52017.28;;;-145.37;45.51
13486;BME280;6815;59.336;17.998;2023-04-22T05:57:54;52005.31;;;-145.37;45.64
13486;BME280;6815;59.336;17.998;2023-04-22T06:00:19;52017.28;;;-145.37;45.60
13486;BME280;6815;59.336;17.998;2023-04-22T06:02:47;51993.34;;;-145.37;44.28
13486;BME280;6815;59.336;17.998;2023-04-22T06:05:12;52029.28;;;-145.37;44.08
13486;BME280;6815;59.336;17.998;2023-04-22T06:07:39;52043.25;;;-145.37;43.47
13486;BME280;6815;59.336;17.998;2023-04-22T06:10:07;52005.31;;;-145.37;43.34
13486;BME280;6815;59.336;17.998;2023-04-22T06:12:34;52049.22;;;-145.37;42.97
13486;BME280;6815;59.336;17.998;2023-04-22T06:15:00;52015.28;;;-145.37;42.15
13486;BME280;6815;59.336;17.998;2023-04-22T06:17:25;52053.22;;;-145.37;42.11
13486;BME280;6815;59.336;17.998;2023-04-22T06:19:52;52009.31;;;-145.37;41.62
13486;BME280;6815;59.336;17.998;2023-04-22T06:22:17;51961.41;;;-145.37;41.27
13486;BME280;6815;59.336;17.998;2023-04-22T06:24:43;52085.16;;;-145.37;41.25
13486;BME280;6815;59.336;17.998;2023-04-22T06:27:09;52023.28;;;-145.37;40.70
13486;BME280;6815;59.336;17.998;2023-04-22T06:29:34;52001.31;;;-145.37;41.30
13486;BME280;6815;59.336;17.998;2023-04-22T06:32:00;52005.31;;;-145.37;40.62
13486;BME280;6815;59.336;17.998;2023-04-22T06:34:25;52023.28;;;-145.37;40.41
13486;BME280;6815;59.336;17.998;2023-04-22T06:36:51;52017.28;;;-145.37;40.79
13486;BME280;6815;59.336;17.998;2023-04-22T06:39:20;52035.25;;;-145.37;41.16
13486;BME280;6815;59.336;17.998;2023-04-22T06:41:45;52013.31;;;-145.37;40.38
13486;BME280;6815;59.336;17.998;2023-04-22T06:44:11;52041.25;;;-145.37;40.10
13486;BME280;6815;59.336;17.998;2023-04-22T06:46:37;52003.31;;;-145.37;40.43
13486;BME280;6815;59.336;17.998;2023-04-22T06:49:03;52021.28;;;-145.37;40.82
13486;BME280;6815;59.336;17.998;2023-04-22T06:51:28;52015.28;;;-145.37;40.32
13486;BME280;6815;59.336;17.998;2023-04-22T06:53:55;52065.19;;;-145.37;40.03
13486;BME280;6815;59.336;17.998;2023-04-22T06:56:23;52015.28;;;-145.37;40.85
13486;BME280;6815;59.336;17.998;2023-04-22T06:58:49;52011.31;;;-145.37;41.56
13486;BME280;6815;59.336;17.998;2023-04-22T07:01:14;51997.34;;;-145.37;41.14
13486;BME280;6815;59.336;17.998;2023-04-22T07:03:40;52057.22;;;-145.37;40.88
13486;BME280;6815;59.336;17.998;2023-04-22T07:06:09;52045.25;;;-145.37;40.13
13486;BME280;6815;59.336;17.998;2023-04-22T07:08:44;52023.28;;;-145.37;40.48
13486;BME280;6815;59.336;17.998;2023-04-22T07:11:10;52021.28;;;-145.37;40.69
13486;BME280;6815;59.336;17.998;2023-04-22T07:13:35;51975.38;;;-145.37;40.17
13486;BME280;6815;59.336;17.998;2023-04-22T07:16:01;52057.22;;;-145.37;39.57
13486;BME280;6815;59.336;17.998;2023-04-22T07:18:27;52025.28;;;-145.37;39.86
13486;BME280;6815;59.336;17.998;2023-04-22T07:20:52;52037.25;;;-145.37;39.61
13486;BME280;6815;59.336;17.998;2023-04-22T07:23:18;52075.19;;;-145.37;39.66
13486;BME280;6815;59.336;17.998;2023-04-22T07:25:44;52007.31;;;-145.37;39.47
13486;BME280;6815;59.336;17.998;2023-04-22T07:28:09;52061.22;;;-145.37;39.36
13486;BME280;6815;59.336;17.998;2023-04-22T07:30:35;52021.28;;;-145.37;39.73
13486;BME280;6815;59.336;17.998;2023-04-22T07:33:00;52005.31;;;-145.37;39.73
13486;BME280;6815;59.336;17.998;2023-04-22T07:35:26;52033.25;;;-145.37;39.78
13486;BME280;6815;59.336;17.998;2023-04-22T07:37:53;52039.25;;;-145.37;39.42
13486;BME280;6815;59.336;17.998;2023-04-22T07:40:18;52053.22;;;-145.37;39.37
13486;BME280;6815;59.336;17.998;2023-04-22T07:42:44;52033.25;;;-145.37;39.34
13486;BME280;6815;59.336;17.998;2023-04-22T07:45:10;51959.41;;;-145.37;39.52
13486;BME280;6815;59.336;17.998;2023-04-22T07:47:35;52029.28;;;-145.37;39.51
13486;BME280;6815;59.336;17.998;2023-04-22T07:50:01;52021.28;;;-145.37;39.28
13486;BME280;6815;59.336;17.998;2023-04-22T07:52:27;52029.28;;;-145.37;38.87
13486;BME280;6815;59.336;17.998;2023-04-22T07:54:54;52003.31;;;-145.37;39.13
13486;BME280;6815;59.336;17.998;2023-04-22T07:57:20;52033.25;;;-145.37;39.23
13486;BME280;6815;59.336;17.998;2023-04-22T07:59:50;52099.13;;;-145.37;38.91
13486;BME280;6815;59.336;17.998;2023-04-22T08:02:15;51995.34;;;-145.37;38.67
13486;BME280;6815;59.336;17.998;2023-04-22T08:04:41;52011.31;;;-145.37;38.99
13486;BME280;6815;59.336;17.998;2023-04-22T08:07:06;52033.25;;;-145.37;38.91
13486;BME280;6815;59.336;17.998;2023-04-22T08:09:32;52031.25;;;-145.37;38.73
13486;BME280;6815;59.336;17.998;2023-04-22T08:11:57;52055.22;;;-145.37;38.57
13486;BME280;6815;59.336;17.998;2023-04-22T08:14:23;51983.34;;;-145.37;38.36
13486;BME280;6815;59.336;17.998;2023-04-22T08:16:53;52011.31;;;-145.37;38.33
13486;BME280;6815;59.336;17.998;2023-04-22T08:19:19;52025.28;;;-145.37;38.55
13486;BME280;6815;59.336;17.998;2023-04-22T08:21:45;52039.25;;;-145.37;38.97
13486;BME280;6815;59.336;17.998;2023-04-22T08:24:13;52065.19;;;-145.37;38.18
13486;BME280;6815;59.336;17.998;2023-04-22T08:26:38;51997.34;;;-145.37;38.00
13486;BME280;6815;59.336;17.998;2023-04-22T08:29:05;52047.25;;;-145.37;38.10
13486;BME280;6815;59.336;17.998;2023-04-22T08:31:30;52015.28;;;-145.37;38.10
13486;BME280;6815;59.336;17.998;2023-04-22T08:33:56;52003.31;;;-145.37;37.88
13486;BME280;6815;59.336;17.998;2023-04-22T08:36:22;52045.25;;;-145.37;37.99
13486;BME280;6815;59.336;17.998;2023-04-22T08:38:50;51997.34;;;-145.37;39.80
13486;BME280;6815;59.336;17.998;2023-04-22T08:41:16;52009.31;;;-145.37;39.36
13486;BME280;6815;59.336;17.998;2023-04-22T08:43:43;51987.34;;;-145.37;38.81
13486;BME280;6815;59.336;17.998;2023-04-22T08:46:10;52033.25;;;-145.37;38.74
13486;BME280;6815;59.336;17.998;2023-04-22T08:48:36;52019.28;;;-145.37;38.69
13486;BME280;6815;59.336;17.998;2023-04-22T08:51:02;52043.25;;;-145.37;39.47
13486;BME280;6815;59.336;17.998;2023-04-22T08:53:28;52027.28;;;-145.37;38.78
13486;BME280;6815;59.336;17.998;2023-04-22T08:55:55;52013.31;;;-145.37;39.82
13486;BME280;6815;59.336;17.998;2023-04-22T08:58:22;52077.19;;;-145.37;38.89
13486;BME280;6815;59.336;17.998;2023-04-22T09:00:49;52049.22;;;-145.37;39.28
13486;BME280;6815;59.336;17.998;2023-04-22T09:03:15;52021.28;;;-145.37;37.83
13486;BME280;6815;59.336;17.998;2023-04-22T09:05:41;51985.34;;;-145.37;38.55
13486;BME280;6815;59.336;17.998;2023-04-22T09:08:08;52011.31;;;-145.37;39.39
13486;BME280;6815;59.336;17.998;2023-04-22T09:10:37;51965.41;;;-145.37;40.25
13486;BME280;6815;59.336;17.998;2023-04-22T09:15:36;52037.25;;;-145.37;36.79
13486;BME280;6815;59.336;17.998;2023-04-22T09:18:02;52013.31;;;-145.37;37.06
13486;BME280;6815;59.336;17.998;2023-04-22T09:20:29;52033.25;;;-145.37;38.48
13486;BME280;6815;59.336;17.998;2023-04-22T09:22:56;51997.34;;;-145.37;37.33
13486;BME280;6815;59.336;17.998;2023-04-22T09:25:26;51997.34;;;-145.37;38.36
13486;BME280;6815;59.336;17.998;2023-04-22T09:27:57;52049.22;;;-145.37;36.79
13486;BME280;6815;59.336;17.998;2023-04-22T09:30:36;52041.25;;;-145.37;35.58
13486;BME280;6815;59.336;17.998;2023-04-22T09:33:06;52007.31;;;-145.37;35.61
13486;BME280;6815;59.336;17.998;2023-04-22T09:35:36;52017.28;;;-145.37;35.50
13486;BME280;6815;59.336;17.998;2023-04-22T09:38:03;52041.25;;;-145.37;35.36
13486;BME280;6815;59.336;17.998;2023-04-22T09:40:30;52011.31;;;-145.37;34.36
13486;BME280;6815;59.336;17.998;2023-04-22T09:43:00;52011.31;;;-145.37;34.85
13486;BME280;6815;59.336;17.998;2023-04-22T09:45:40;52025.28;;;-145.37;34.52
13486;BME280;6815;59.336;17.998;2023-04-22T09:48:13;52037.25;;;-145.37;33.78
13486;BME280;6815;59.336;17.998;2023-04-22T09:50:43;52005.31;;;-145.37;33.76
13486;BME280;6815;59.336;17.998;2023-04-22T09:53:11;52003.31;;;-145.37;33.90
13486;BME280;6815;59.336;17.998;2023-04-22T09:55:40;52033.25;;;-145.37;33.55
13486;BME280;6815;59.336;17.998;2023-04-22T09:58:13;52053.22;;;-145.37;33.71
13486;BME280;6815;59.336;17.998;2023-04-22T10:00:42;52027.28;;;-145.37;33.14
13486;BME280;6815;59.336;17.998;2023-04-22T10:03:08;52009.31;;;-145.37;33.02
13486;BME280;6815;59.336;17.998;2023-04-22T10:05:34;52047.25;;;-145.37;33.40
13486;BME280;6815;59.336;17.998;2023-04-22T10:08:04;52035.25;;;-145.37;32.98
13486;BME280;6815;59.336;17.998;2023-04-22T10:10:30;52023.28;;;-145.37;33.18
13486;BME280;6815;59.336;17.998;2023-04-22T10:12:57;52035.25;;;-145.37;33.02
13486;BME280;6815;59.336;17.998;2023-04-22T10:15:24;52013.31;;;-145.37;32.97
13486;BME280;6815;59.336;17.998;2023-04-22T10:17:52;51987.34;;;-145.37;33.06
13486;BME280;6815;59.336;17.998;2023-04-22T10:20:19;52003.31;;;-145.37;32.85
13486;BME280;6815;59.336;17.998;2023-04-22T10:22:46;52033.25;;;-145.37;32.36
13486;BME280;6815;59.336;17.998;2023-04-22T10:27:52;52017.28;;;-145.37;32.47
13486;BME280;6815;59.336;17.998;2023-04-22T10:30:26;52007.31;;;-145.37;32.32
13486;BME280;6815;59.336;17.998;2023-04-22T10:32:52;52027.28;;;-145.37;31.84
13486;BME280;6815;59.336;17.998;2023-04-22T10:35:25;52017.28;;;-145.37;31.91
13486;BME280;6815;59.336;17.998;2023-04-22T10:37:51;52037.25;;;-145.37;32.01
13486;BME280;6815;59.336;17.998;2023-04-22T10:40:17;51993.34;;;-145.37;32.05
13486;BME280;6815;59.336;17.998;2023-04-22T10:42:49;51995.34;;;-145.37;32.58
13486;BME280;6815;59.336;17.998;2023-04-22T10:45:16;51961.41;;;-145.37;32.29
13486;BME280;6815;59.336;17.998;2023-04-22T10:47:42;52081.16;;;-145.37;32.27
13486;BME280;6815;59.336;17.998;2023-04-22T10:50:25;52031.25;;;-145.37;32.19
13486;BME280;6815;59.336;17.998;2023-04-22T10:52:57;52001.31;;;-145.37;32.25
13486;BME280;6815;59.336;17.998;2023-04-22T10:55:24;51999.34;;;-145.37;32.29
13486;BME280;6815;59.336;17.998;2023-04-22T10:57:52;51993.34;;;-145.37;32.29
13486;BME280;6815;59.336;17.998;2023-04-22T11:00:22;52053.22;;;-145.37;32.43
13486;BME280;6815;59.336;17.998;2023-04-22T11:05:30;51969.38;;;-145.37;32.14
13486;BME280;6815;59.336;17.998;2023-04-22T11:08:18;52025.28;;;-145.37;32.15
13486;BME280;6815;59.336;17.998;2023-04-22T11:10:51;52003.31;;;-145.37;31.94
13486;BME280;6815;59.336;17.998;2023-04-22T11:13:20;52051.22;;;-145.37;31.65
13486;BME280;6815;59.336;17.998;2023-04-22T11:15:52;51997.34;;;-145.37;31.44
13486;BME280;6815;59.336;17.998;2023-04-22T11:18:24;52003.31;;;-145.37;31.54
13486;BME280;6815;59.336;17.998;2023-04-22T11:20:50;52025.28;;;-145.37;31.65
13486;BME280;6815;59.336;17.998;2023-04-22T11:23:25;52053.22;;;-145.37;31.62
13486;BME280;6815;59.336;17.998;2023-04-22T11:25:57;51977.38;;;-145.37;31.73
13486;BME280;6815;59.336;17.998;2023-04-22T11:28:23;52019.28;;;-145.37;31.25
13486;BME280;6815;59.336;17.998;2023-04-22T11:30:49;52001.31;;;-145.37;31.06
13486;BME280;6815;59.336;17.998;2023-04-22T11:33:15;52013.31;;;-145.37;31.25
13486;BME280;6815;59.336;17.998;2023-04-22T11:35:41;52077.19;;;-145.37;31.13
13486;BME280;6815;59.336;17.998;2023-04-22T11:38:07;52083.16;;;-145.37;31.17
13486;BME280;6815;59.336;17.998;2023-04-22T11:40:41;52019.28;;;-145.37;31.00
13486;BME280;6815;59.336;17.998;2023-04-22T11:43:08;52005.31;;;-145.37;30.99
13486;BME280;6815;59.336;17.998;2023-04-22T11:45:35;52023.28;;;-145.37;30.86
13486;BME280;6815;59.336;17.998;2023-04-22T11:48:03;51993.34;;;-145.37;30.64
13486;BME280;6815;59.336;17.998;2023-04-22T11:50:31;52017.28;;;-145.37;30.91
13486;BME280;6815;59.336;17.998;2023-04-22T11:53:01;52007.31;;;-145.37;30.70
13486;BME280;6815;59.336;17.998;2023-04-22T11:58:05;51993.34;;;-145.37;30.67
13486;BME280;6815;59.336;17.998;2023-04-22T12:00:34;51985.34;;;-145.37;30.34
13486;BME280;6815;59.336;17.998;2023-04-22T12:03:03;52001.31;;;-145.37;30.31
13486;BME280;6815;59.336;17.998;2023-04-22T12:05:33;52023.28;;;-145.37;30.59
13486;BME280;6815;59.336;17.998;2023-04-22T12:08:10;52045.25;;;-145.37;30.52
13486;BME280;6815;59.336;17.998;2023-04-22T12:10:47;52021.28;;;-145.37;30.58
13486;BME280;6815;59.336;17.998;2023-04-22T12:13:27;52025.28;;;-145.37;30.73
13486;BME280;6815;59.336;17.998;2023-04-22T12:15:57;52001.31;;;-145.37;30.57
13486;BME280;6815;59.336;17.998;2023-04-22T12:21:17;52017.28;;;-145.37;30.79
13486;BME280;6815;59.336;17.998;2023-04-22T12:23:48;52017.28;;;-145.37;30.73
13486;BME280;6815;59.336;17.998;2023-04-22T12:26:16;52025.28;;;-145.37;31.00
13486;BME280;6815;59.336;17.998;2023-04-22T12:28:42;52001.31;;;-145.37;30.92
13486;BME280;6815;59.336;17.998;2023-04-22T12:31:09;52003.31;;;-145.37;30.82
13486;BME280;6815;59.336;17.998;2023-04-22T12:33:36;51985.34;;;-145.37;30.79
13486;BME280;6815;59.336;17.998;2023-04-22T12:36:01;51929.47;;;-145.37;30.97
13486;BME280;6815;59.336;17.998;2023-04-22T12:38:27;52007.31;;;-145.37;30.94
13486;BME280;6815;59.336;17.998;2023-04-22T12:40:53;52003.31;;;-145.37;31.10
13486;BME280;6815;59.336;17.998;2023-04-22T12:43:19;51987.34;;;-145.37;30.93
13486;BME280;6815;59.336;17.998;2023-04-22T12:45:45;51995.34;;;-145.37;31.10
13486;BME280;6815;59.336;17.998;2023-04-22T12:48:10;52031.25;;;-145.37;30.97
13486;BME280;6815;59.336;17.998;2023-04-22T12:50:36;51989.34;;;-145.37;30.95